Time;durP1;ratioP1;P1;durP2;ratioP2;P2;SDS_P1;SDS_P2;PMS_P1;PMS_P2;Temp;Humidity;BMP_temperature;BMP_pressure;BME280_temperature;BME280_humidity;BME280_pressure;Samples;Min_cycle;Max_cycle;Signal;HPM_P1;HPM_P2
2021/09/02 00:00:17;;;;;;;4.03;3.07;;;;;;;;;;5100784;28;20288;-64
2021/09/02 00:02:45;;;;;;;3.63;3.33;;;;;;;;;;5100691;28;20211;-65
2021/09/02 00:05:13;;;;;;;3.60;3.30;;;;;;;;;;5100602;28;20311;-65
2021/09/02 00:07:41;;;;;;;4.77;3.70;;;;;;;;;;5100723;28;20198;-65
2021/09/02 00:10:10;;;;;;;3.30;3.00;;;;;;;;;;5100423;28;20245;-65
2021/09/02 00:12:39;;;;;;;3.50;3.20;;;;;;;;;;5100501;28;20198;-64
2021/09/02 00:15:08;;;;;;;4.50;3.30;;;;;;;;;;5100649;28;20237;-65
2021/09/02 00:17:36;;;;;;;3.77;3.20;;;;;;;;;;5100838;28;20206;-65
2021/09/02 00:20:05;;;;;;;3.67;3.20;;;;;;;;;;5105577;28;20229;-65
2021/09/02 00:22:33;;;;;;;4.20;3.30;;;;;;;;;;5102836;28;20228;-65
2021/09/02 00:25:01;;;;;;;3.67;3.37;;;;;;;;;;5109713;28;20229;-66
2021/09/02 00:27:29;;;;;;;3.97;3.40;;;;;;;;;;5104064;28;20558;-66
2021/09/02 00:29:59;;;;;;;6.73;3.50;;;;;;;;;;5120843;28;20207;-66
2021/09/02 00:32:26;;;;;;;4.60;3.33;;;;;;;;;;5120348;28;20575;-65
2021/09/02 00:34:54;;;;;;;3.33;3.00;;;;;;;;;;5120284;28;20239;-65
2021/09/02 00:37:22;;;;;;;6.07;3.40;;;;;;;;;;5119428;28;20668;-65
2021/09/02 00:39:50;;;;;;;5.53;4.17;;;;;;;;;;5099496;28;20637;-65
2021/09/02 00:42:18;;;;;;;13.87;4.93;;;;;;;;;;5099965;28;20233;-64
2021/09/02 00:44:47;;;;;;;9.07;4.77;;;;;;;;;;5099999;28;20235;-65
2021/09/02 00:47:17;;;;;;;8.83;4.80;;;;;;;;;;5099695;28;20290;-67
2021/09/02 00:49:45;;;;;;;9.80;5.30;;;;;;;;;;5101421;28;20729;-65
2021/09/02 00:52:16;;;;;;;7.47;4.83;;;;;;;;;;5099684;28;20233;-65
2021/09/02 00:54:45;;;;;;;7.27;4.60;;;;;;;;;;5099645;28;20230;-65
2021/09/02 00:57:13;;;;;;;8.77;4.83;;;;;;;;;;5099445;28;20237;-65
2021/09/02 00:59:41;;;;;;;10.80;5.47;;;;;;;;;;5099978;28;20202;-65
2021/09/02 01:02:09;;;;;;;9.53;4.43;;;;;;;;;;5099416;28;20225;-65
2021/09/02 01:04:39;;;;;;;13.03;5.37;;;;;;;;;;5099585;28;20229;-67
2021/09/02 01:07:07;;;;;;;5.63;4.67;;;;;;;;;;5099701;28;20202;-66
2021/09/02 01:09:35;;;;;;;8.73;4.90;;;;;;;;;;5099125;28;20205;-65
2021/09/02 01:12:22;;;;;;;6.70;4.90;;;;;;;;;;5099126;28;20669;-65
2021/09/02 01:14:50;;;;;;;6.70;4.60;;;;;;;;;;5099137;28;20225;-65
2021/09/02 01:17:18;;;;;;;6.97;4.47;;;;;;;;;;5099289;28;20216;-65
2021/09/02 01:19:48;;;;;;;10.80;4.93;;;;;;;;;;5101733;28;20696;-64
2021/09/02 01:22:16;;;;;;;9.73;4.93;;;;;;;;;;5105737;28;20229;-64
2021/09/02 01:24:45;;;;;;;9.73;5.50;;;;;;;;;;5105817;28;20232;-66
2021/09/02 01:27:13;;;;;;;6.20;5.10;;;;;;;;;;5104082;28;20233;-66
2021/09/02 01:29:41;;;;;;;5.07;4.57;;;;;;;;;;5099636;28;20229;-67
2021/09/02 01:32:09;;;;;;;8.03;5.33;;;;;;;;;;5098931;28;20201;-66
2021/09/02 01:34:37;;;;;;;9.37;5.60;;;;;;;;;;5099010;28;20225;-67
2021/09/02 01:37:05;;;;;;;8.77;5.57;;;;;;;;;;5099651;28;20208;-67
2021/09/02 01:39:33;;;;;;;8.17;5.33;;;;;;;;;;5115753;28;20288;-66
2021/09/02 01:42:02;;;;;;;9.23;4.93;;;;;;;;;;5119069;27;20311;-66
2021/09/02 01:44:30;;;;;;;5.40;4.77;;;;;;;;;;5117498;28;20314;-66
2021/09/02 01:46:58;;;;;;;10.37;4.87;;;;;;;;;;5119211;28;20212;-67
2021/09/02 01:49:26;;;;;;;6.03;4.57;;;;;;;;;;5118416;28;20211;-66
2021/09/02 01:51:54;;;;;;;5.00;4.40;;;;;;;;;;5103010;28;20229;-65
2021/09/02 01:54:22;;;;;;;6.43;4.80;;;;;;;;;;5099547;28;20588;-67
2021/09/02 01:56:50;;;;;;;5.00;4.37;;;;;;;;;;5118359;28;20624;-67
2021/09/02 01:59:19;;;;;;;7.33;5.00;;;;;;;;;;5100454;28;20212;-67
2021/09/02 02:01:47;;;;;;;5.97;5.00;;;;;;;;;;5098341;28;20224;-67
2021/09/02 02:04:15;;;;;;;6.10;4.40;;;;;;;;;;5098243;28;20288;-67
2021/09/02 02:06:43;;;;;;;5.60;4.37;;;;;;;;;;5098342;28;20647;-67
2021/09/02 02:09:11;;;;;;;7.97;4.87;;;;;;;;;;5098545;28;20236;-67
2021/09/02 02:11:39;;;;;;;6.03;4.00;;;;;;;;;;5098000;28;20683;-67
2021/09/02 02:14:07;;;;;;;5.67;4.23;;;;;;;;;;5098003;28;20247;-66
2021/09/02 02:16:36;;;;;;;7.00;4.40;;;;;;;;;;5098047;28;20210;-65
2021/09/02 02:19:04;;;;;;;5.70;4.50;;;;;;;;;;5098048;28;20268;-67
2021/09/02 02:21:32;;;;;;;6.47;4.93;;;;;;;;;;5104179;28;20224;-66
2021/09/02 02:24:00;;;;;;;5.43;4.60;;;;;;;;;;5099292;28;20648;-67
2021/09/02 02:26:28;;;;;;;6.03;4.57;;;;;;;;;;5109101;28;20273;-66
2021/09/02 02:28:56;;;;;;;7.33;4.40;;;;;;;;;;5098109;28;20269;-66
2021/09/02 02:31:24;;;;;;;9.93;4.77;;;;;;;;;;5098154;28;20206;-67
2021/09/02 02:33:54;;;;;;;6.80;4.77;;;;;;;;;;5097894;28;20218;-67
2021/09/02 02:36:22;;;;;;;10.03;5.10;;;;;;;;;;5098257;28;20201;-67
2021/09/02 02:38:50;;;;;;;6.90;5.23;;;;;;;;;;5097737;28;20294;-66
2021/09/02 02:41:18;;;;;;;11.17;5.47;;;;;;;;;;5097772;28;20207;-64
2021/09/02 02:43:46;;;;;;;6.97;4.33;;;;;;;;;;5097551;28;20236;-66
2021/09/02 02:46:14;;;;;;;11.37;5.50;;;;;;;;;;5097530;28;20664;-67
2021/09/02 02:48:42;;;;;;;8.27;4.67;;;;;;;;;;5097915;28;20266;-67
2021/09/02 02:51:11;;;;;;;7.27;5.00;;;;;;;;;;5108909;28;20236;-65
2021/09/02 02:53:39;;;;;;;10.10;5.07;;;;;;;;;;5108666;28;20260;-67
2021/09/02 02:56:07;;;;;;;8.77;4.50;;;;;;;;;;5112646;28;20198;-66
2021/09/02 02:58:35;;;;;;;6.13;4.73;;;;;;;;;;5098114;28;20212;-66
2021/09/02 03:01:03;;;;;;;9.50;4.70;;;;;;;;;;5097609;28;20224;-66
2021/09/02 03:03:31;;;;;;;9.27;4.83;;;;;;;;;;5101989;28;20312;-68
2021/09/02 03:05:59;;;;;;;6.03;4.90;;;;;;;;;;5115121;28;20223;-67
2021/09/02 03:08:28;;;;;;;15.07;5.60;;;;;;;;;;5106931;28;20208;-66
2021/09/02 03:10:56;;;;;;;10.37;5.53;;;;;;;;;;5110783;28;20223;-65
2021/09/02 03:13:24;;;;;;;6.73;4.53;;;;;;;;;;5110705;28;20209;-65
2021/09/02 03:15:52;;;;;;;8.73;4.83;;;;;;;;;;5109194;28;20205;-65
2021/09/02 03:18:20;;;;;;;8.40;5.70;;;;;;;;;;5111967;28;20209;-65
2021/09/02 03:20:48;;;;;;;8.20;4.90;;;;;;;;;;5104333;28;20746;-64
2021/09/02 03:23:17;;;;;;;8.97;5.63;;;;;;;;;;5108196;28;20222;-66
2021/09/02 03:25:46;;;;;;;8.27;4.97;;;;;;;;;;5109274;28;20306;-66
2021/09/02 03:28:14;;;;;;;8.20;5.33;;;;;;;;;;5108826;28;20201;-66
2021/09/02 03:30:42;;;;;;;11.17;5.27;;;;;;;;;;5113347;28;20193;-66
2021/09/02 03:33:10;;;;;;;7.73;5.47;;;;;;;;;;5113525;28;20201;-66
2021/09/02 03:35:38;;;;;;;8.57;6.00;;;;;;;;;;5111112;28;20267;-67
2021/09/02 03:38:06;;;;;;;7.63;5.57;;;;;;;;;;5109449;28;20207;-66
2021/09/02 03:40:35;;;;;;;8.87;5.53;;;;;;;;;;5109208;28;20200;-72
2021/09/02 03:43:04;;;;;;;8.83;5.67;;;;;;;;;;5108614;28;20691;-67
2021/09/02 03:45:32;;;;;;;6.60;5.40;;;;;;;;;;5110048;28;20227;-67
2021/09/02 03:48:00;;;;;;;7.73;6.03;;;;;;;;;;5106009;28;20256;-66
2021/09/02 03:50:28;;;;;;;9.30;5.83;;;;;;;;;;5110551;28;20284;-66
2021/09/02 03:52:56;;;;;;;10.23;6.03;;;;;;;;;;5107180;28;20190;-66
2021/09/02 03:55:24;;;;;;;9.97;5.63;;;;;;;;;;5110726;28;20224;-66
2021/09/02 03:57:52;;;;;;;7.40;5.37;;;;;;;;;;5111660;28;20278;-67
2021/09/02 04:00:22;;;;;;;7.30;5.43;;;;;;;;;;5109775;28;20215;-66
2021/09/02 04:02:50;;;;;;;7.53;5.57;;;;;;;;;;5109491;28;20221;-68
2021/09/02 04:05:18;;;;;;;6.73;4.93;;;;;;;;;;5100188;28;20227;-67
2021/09/02 04:07:46;;;;;;;6.70;5.30;;;;;;;;;;5100610;28;20202;-67
2021/09/02 04:10:14;;;;;;;5.53;4.43;;;;;;;;;;5100316;28;20288;-67
2021/09/02 04:12:42;;;;;;;7.93;5.80;;;;;;;;;;5099848;28;20544;-67
2021/09/02 04:15:10;;;;;;;7.30;4.87;;;;;;;;;;5115351;28;20228;-67
2021/09/02 04:17:39;;;;;;;6.80;4.77;;;;;;;;;;5117017;28;20201;-67
2021/09/02 04:20:08;;;;;;;5.23;4.73;;;;;;;;;;5114978;28;20201;-67
2021/09/02 04:22:36;;;;;;;6.27;4.90;;;;;;;;;;5102456;27;20248;-67
2021/09/02 04:25:04;;;;;;;6.07;5.17;;;;;;;;;;5103822;28;20232;-67
2021/09/02 04:27:32;;;;;;;5.97;4.93;;;;;;;;;;5100041;28;20268;-67
2021/09/02 04:30:00;;;;;;;6.03;5.17;;;;;;;;;;5104561;28;20208;-65
2021/09/02 04:32:28;;;;;;;5.90;5.00;;;;;;;;;;5107088;28;20197;-65
2021/09/02 04:34:58;;;;;;;10.80;7.37;;;;;;;;;;5108132;28;20218;-65
2021/09/02 04:37:26;;;;;;;8.37;5.17;;;;;;;;;;5099930;28;20288;-65
2021/09/02 04:39:54;;;;;;;11.27;5.23;;;;;;;;;;5109204;28;20299;-65
2021/09/02 04:42:22;;;;;;;12.83;6.07;;;;;;;;;;5104910;28;20281;-65
2021/09/02 04:44:50;;;;;;;10.20;5.40;;;;;;;;;;5114205;28;20297;-65
2021/09/02 04:47:18;;;;;;;7.13;5.53;;;;;;;;;;5102821;28;20210;-65
2021/09/02 04:49:46;;;;;;;5.20;4.70;;;;;;;;;;5109664;28;20197;-66
2021/09/02 04:52:15;;;;;;;5.60;4.90;;;;;;;;;;5107352;28;20247;-65
2021/09/02 04:54:43;;;;;;;6.87;5.47;;;;;;;;;;5104809;28;20656;-65
2021/09/02 04:57:11;;;;;;;10.73;5.30;;;;;;;;;;5111483;28;20197;-65
2021/09/02 04:59:39;;;;;;;5.83;5.00;;;;;;;;;;5109949;28;20197;-65
2021/09/02 05:02:07;;;;;;;6.43;5.43;;;;;;;;;;5110896;28;20215;-65
2021/09/02 05:04:36;;;;;;;8.57;5.63;;;;;;;;;;5115035;28;20292;-65
2021/09/02 05:07:04;;;;;;;6.17;5.13;;;;;;;;;;5110142;27;20209;-68
2021/09/02 05:09:33;;;;;;;7.57;5.57;;;;;;;;;;5103089;28;20270;-63
2021/09/02 05:12:14;;;;;;;7.10;5.00;;;;;;;;;;5105595;28;20237;-63
2021/09/02 05:14:42;;;;;;;7.73;5.23;;;;;;;;;;5104240;28;20572;-63
2021/09/02 05:17:11;;;;;;;12.80;5.97;;;;;;;;;;5101540;28;20205;-63
2021/09/02 05:19:38;;;;;;;7.13;5.13;;;;;;;;;;5108614;28;20233;-63
2021/09/02 05:22:06;;;;;;;9.63;5.30;;;;;;;;;;5111005;28;20209;-63
2021/09/02 05:24:38;;;;;;;9.87;5.97;;;;;;;;;;5097894;28;20345;-63
2021/09/02 05:27:06;;;;;;;9.40;5.07;;;;;;;;;;5104698;28;20197;-63
2021/09/02 05:29:34;;;;;;;5.83;4.30;;;;;;;;;;5107627;28;20197;-63
2021/09/02 05:32:03;;;;;;;8.33;5.83;;;;;;;;;;5107205;28;20539;-63
2021/09/02 05:34:31;;;;;;;6.80;4.70;;;;;;;;;;5106096;28;20236;-63
2021/09/02 05:36:59;;;;;;;6.70;5.70;;;;;;;;;;5108925;28;20261;-63
2021/09/02 05:39:27;;;;;;;7.50;5.47;;;;;;;;;;5110186;28;20200;-63
2021/09/02 05:42:00;;;;;;;8.73;5.70;;;;;;;;;;5110658;28;20206;-62
2021/09/02 05:44:28;;;;;;;6.90;5.50;;;;;;;;;;5095772;28;20221;-63
2021/09/02 05:46:56;;;;;;;7.67;5.73;;;;;;;;;;5104410;28;20193;-63
2021/09/02 05:49:24;;;;;;;7.87;5.43;;;;;;;;;;5110939;28;20204;-63
2021/09/02 05:51:52;;;;;;;10.37;5.70;;;;;;;;;;5106158;27;20324;-63
2021/09/02 05:54:20;;;;;;;9.17;6.77;;;;;;;;;;5107333;28;20212;-67
2021/09/02 05:56:48;;;;;;;12.07;6.43;;;;;;;;;;5105772;28;20563;-66
2021/09/02 05:59:17;;;;;;;8.93;6.03;;;;;;;;;;5100554;28;20212;-67
2021/09/02 06:01:45;;;;;;;8.80;6.40;;;;;;;;;;5107808;28;20201;-67
2021/09/02 06:04:14;;;;;;;7.63;6.07;;;;;;;;;;5111679;28;20233;-67
2021/09/02 06:06:43;;;;;;;8.73;6.30;;;;;;;;;;5106825;28;20208;-68
2021/09/02 06:09:11;;;;;;;8.10;6.10;;;;;;;;;;5105152;27;20220;-67
2021/09/02 06:11:39;;;;;;;6.50;5.13;;;;;;;;;;5113046;28;20213;-68
2021/09/02 06:14:08;;;;;;;8.57;5.60;;;;;;;;;;5106944;28;20229;-69
2021/09/02 06:16:37;;;;;;;7.50;5.70;;;;;;;;;;5102201;28;20205;-69
2021/09/02 06:19:06;;;;;;;10.03;5.70;;;;;;;;;;5111502;28;20610;-68
2021/09/02 06:21:34;;;;;;;9.57;6.10;;;;;;;;;;5104914;28;20537;-70
2021/09/02 06:24:02;;;;;;;7.53;6.10;;;;;;;;;;5108754;28;20707;-65
2021/09/02 06:26:34;;;;;;;7.20;5.80;;;;;;;;;;5108093;28;20288;-69
2021/09/02 06:29:02;;;;;;;6.83;6.03;;;;;;;;;;5106499;28;20212;-67
2021/09/02 06:31:30;;;;;;;8.20;5.67;;;;;;;;;;5108130;28;20287;-67
2021/09/02 06:34:00;;;;;;;9.47;5.50;;;;;;;;;;5101852;28;20253;-67
2021/09/02 06:36:29;;;;;;;11.00;6.37;;;;;;;;;;5102560;28;20208;-67
2021/09/02 06:38:57;;;;;;;9.87;6.27;;;;;;;;;;5103585;28;20672;-67
2021/09/02 06:41:25;;;;;;;12.80;6.23;;;;;;;;;;5104558;28;20213;-67
2021/09/02 06:43:53;;;;;;;10.00;6.13;;;;;;;;;;5103041;28;20260;-67
2021/09/02 06:46:36;;;;;;;8.17;6.00;;;;;;;;;;5102683;28;20288;-71
2021/09/02 06:49:06;;;;;;;6.43;4.93;;;;;;;;;;5106097;28;20209;-66
2021/09/02 06:51:39;;;;;;;11.83;5.70;;;;;;;;;;5112644;28;20247;-69
2021/09/02 06:54:07;;;;;;;8.30;5.43;;;;;;;;;;5110356;28;20759;-67
2021/09/02 06:56:36;;;;;;;9.77;5.97;;;;;;;;;;5104761;28;20213;-69
2021/09/02 06:59:04;;;;;;;8.23;5.50;;;;;;;;;;5105775;28;20233;-66
2021/09/02 07:01:32;;;;;;;9.27;7.53;;;;;;;;;;5102796;28;20292;-66
2021/09/02 07:04:01;;;;;;;9.87;5.73;;;;;;;;;;5110082;28;20225;-68
2021/09/02 07:06:30;;;;;;;8.57;5.27;;;;;;;;;;5107487;28;20210;-68
2021/09/02 07:08:59;;;;;;;8.13;5.90;;;;;;;;;;5110898;28;20212;-69
2021/09/02 07:11:27;;;;;;;10.70;5.40;;;;;;;;;;5109323;28;20602;-69
2021/09/02 07:13:55;;;;;;;7.63;5.83;;;;;;;;;;5111584;28;20237;-67
2021/09/02 07:16:24;;;;;;;8.37;5.27;;;;;;;;;;5112022;28;20228;-69
2021/09/02 07:18:53;;;;;;;7.60;5.77;;;;;;;;;;5106203;28;20237;-63
2021/09/02 07:21:21;;;;;;;11.30;5.20;;;;;;;;;;5107812;28;20208;-64
2021/09/02 07:23:50;;;;;;;11.23;5.43;;;;;;;;;;5112156;28;20233;-64
2021/09/02 07:26:19;;;;;;;7.23;5.87;;;;;;;;;;5112822;28;20710;-64
2021/09/02 07:28:47;;;;;;;10.47;5.23;;;;;;;;;;5113244;28;20301;-70
2021/09/02 07:31:15;;;;;;;11.70;5.60;;;;;;;;;;5113166;28;20262;-68
2021/09/02 07:33:44;;;;;;;12.43;5.67;;;;;;;;;;5104530;28;20229;-69
2021/09/02 07:36:12;;;;;;;8.43;5.10;;;;;;;;;;5110919;28;20240;-68
2021/09/02 07:38:40;;;;;;;9.17;5.43;;;;;;;;;;5102859;28;20208;-66
2021/09/02 07:41:09;;;;;;;6.83;5.60;;;;;;;;;;5106050;28;20288;-67
2021/09/02 07:43:38;;;;;;;10.07;6.00;;;;;;;;;;5104950;28;20664;-67
2021/09/02 07:46:06;;;;;;;6.53;5.40;;;;;;;;;;5107129;28;20629;-68
2021/09/02 07:48:34;;;;;;;6.10;4.67;;;;;;;;;;5110170;28;20216;-66
2021/09/02 07:51:03;;;;;;;11.50;5.83;;;;;;;;;;5110912;28;20237;-66
2021/09/02 07:53:33;;;;;;;10.80;6.10;;;;;;;;;;5106035;28;20275;-67
2021/09/02 07:56:02;;;;;;;7.50;5.93;;;;;;;;;;5113960;28;20698;-68
2021/09/02 07:58:32;;;;;;;9.00;5.37;;;;;;;;;;5116818;28;20211;-69
2021/09/02 08:01:00;;;;;;;9.03;5.57;;;;;;;;;;5105573;28;20225;-69
2021/09/02 08:03:28;;;;;;;10.63;5.90;;;;;;;;;;5103046;28;20288;-69
2021/09/02 08:05:56;;;;;;;6.43;5.27;;;;;;;;;;5103455;28;20683;-67
2021/09/02 08:08:24;;;;;;;7.20;4.97;;;;;;;;;;5105107;28;20247;-68
2021/09/02 08:10:53;;;;;;;10.13;5.83;;;;;;;;;;5116070;28;20230;-69
2021/09/02 08:13:21;;;;;;;8.90;5.53;;;;;;;;;;5103543;28;20216;-68
2021/09/02 08:15:53;;;;;;;9.23;5.73;;;;;;;;;;5106562;28;20201;-70
2021/09/02 08:18:22;;;;;;;8.77;5.33;;;;;;;;;;5104454;28;20316;-70
2021/09/02 08:20:50;;;;;;;8.80;5.20;;;;;;;;;;5112963;28;20211;-70
2021/09/02 08:23:19;;;;;;;10.60;5.33;;;;;;;;;;5116575;28;20212;-71
2021/09/02 08:25:47;;;;;;;10.33;5.57;;;;;;;;;;5107896;28;20228;-68
2021/09/02 08:28:16;;;;;;;10.00;5.17;;;;;;;;;;5109331;28;20202;-72
2021/09/02 08:30:44;;;;;;;10.47;5.57;;;;;;;;;;5105257;28;20197;-68
2021/09/02 08:33:14;;;;;;;10.83;5.13;;;;;;;;;;5107037;28;20229;-70
2021/09/02 08:35:41;;;;;;;8.53;5.27;;;;;;;;;;5104503;28;20232;-71
2021/09/02 08:38:10;;;;;;;7.37;5.33;;;;;;;;;;5106460;28;20208;-70
2021/09/02 08:40:40;;;;;;;6.80;4.50;;;;;;;;;;5105007;28;20660;-71
2021/09/02 08:43:08;;;;;;;10.83;4.83;;;;;;;;;;5111514;28;20313;-71
2021/09/02 08:45:36;;;;;;;7.47;5.13;;;;;;;;;;5104289;28;20229;-70
2021/09/02 08:48:05;;;;;;;8.80;5.20;;;;;;;;;;5106858;28;20209;-69
2021/09/02 08:50:36;;;;;;;9.00;5.17;;;;;;;;;;5104595;28;20210;-68
2021/09/02 08:53:04;;;;;;;7.47;5.23;;;;;;;;;;5111265;28;20291;-70
2021/09/02 08:55:34;;;;;;;9.37;5.90;;;;;;;;;;5110868;28;20660;-68
2021/09/02 08:58:02;;;;;;;7.67;4.83;;;;;;;;;;5109155;28;20201;-69
2021/09/02 09:00:30;;;;;;;6.30;5.23;;;;;;;;;;5106193;28;20219;-68
2021/09/02 09:03:00;;;;;;;9.10;5.17;;;;;;;;;;5107730;28;20233;-71
2021/09/02 09:05:30;;;;;;;9.07;5.93;;;;;;;;;;5105221;28;20230;-68
2021/09/02 09:08:00;;;;;;;7.67;4.80;;;;;;;;;;5112321;28;20292;-70
2021/09/02 09:10:29;;;;;;;6.80;5.00;;;;;;;;;;5098597;28;20682;-68
2021/09/02 09:12:58;;;;;;;11.07;4.93;;;;;;;;;;5098929;28;20206;-68
2021/09/02 09:15:29;;;;;;;6.33;4.83;;;;;;;;;;5099061;28;20259;-69
2021/09/02 09:17:58;;;;;;;5.60;4.83;;;;;;;;;;5101086;28;20257;-69
2021/09/02 09:20:26;;;;;;;8.23;4.70;;;;;;;;;;5110466;28;20288;-68
2021/09/02 09:22:59;;;;;;;7.67;5.30;;;;;;;;;;5102338;28;20208;-71
2021/09/02 09:25:29;;;;;;;6.03;4.57;;;;;;;;;;5110964;28;20221;-72
2021/09/02 09:27:58;;;;;;;5.33;4.53;;;;;;;;;;5113627;28;20201;-70
2021/09/02 09:30:30;;;;;;;7.77;5.63;;;;;;;;;;5115392;28;20657;-73
2021/09/02 09:32:59;;;;;;;5.60;4.50;;;;;;;;;;5105895;28;20198;-73
2021/09/02 09:35:28;;;;;;;7.53;4.93;;;;;;;;;;5113353;28;20238;-73
2021/09/02 09:38:04;;;;;;;8.87;5.13;;;;;;;;;;5109643;28;20573;-72
2021/09/02 09:40:34;;;;;;;6.50;4.33;;;;;;;;;;5114323;28;20255;-72
2021/09/02 09:43:06;;;;;;;7.77;5.07;;;;;;;;;;5098764;28;20259;-72
2021/09/02 09:45:36;;;;;;;9.73;5.30;;;;;;;;;;5098186;28;20232;-71
2021/09/02 09:48:05;;;;;;;6.37;4.57;;;;;;;;;;5097916;28;20206;-72
2021/09/02 09:50:33;;;;;;;7.37;5.10;;;;;;;;;;5103676;28;20602;-64
2021/09/02 09:53:01;;;;;;;6.47;4.70;;;;;;;;;;5107319;28;20218;-64
2021/09/02 09:55:29;;;;;;;8.23;5.07;;;;;;;;;;5107315;28;20228;-64
2021/09/02 09:57:58;;;;;;;7.77;5.37;;;;;;;;;;5105345;28;20576;-63
2021/09/02 10:00:27;;;;;;;8.57;5.13;;;;;;;;;;5105633;28;20212;-63
2021/09/02 10:02:55;;;;;;;7.63;4.60;;;;;;;;;;5104633;28;20717;-64
2021/09/02 10:05:24;;;;;;;10.70;4.93;;;;;;;;;;5099743;28;20660;-65
2021/09/02 10:07:52;;;;;;;7.87;4.80;;;;;;;;;;5105256;28;20698;-63
2021/09/02 10:10:20;;;;;;;5.67;4.03;;;;;;;;;;5108433;28;20196;-63
2021/09/02 10:12:49;;;;;;;6.77;4.60;;;;;;;;;;5104862;28;20208;-61
2021/09/02 10:15:19;;;;;;;9.50;5.13;;;;;;;;;;5099441;28;20252;-61
2021/09/02 10:17:47;;;;;;;9.57;5.37;;;;;;;;;;5102833;28;20204;-63
2021/09/02 10:20:17;;;;;;;5.57;4.73;;;;;;;;;;5103277;28;20239;-62
2021/09/02 10:22:45;;;;;;;10.40;5.23;;;;;;;;;;5104843;28;20264;-65
2021/09/02 10:25:34;;;;;;;8.37;5.33;;;;;;;;;;5101551;28;20225;-63
2021/09/02 10:28:03;;;;;;;7.20;5.13;;;;;;;;;;5100276;28;20312;-63
2021/09/02 10:30:33;;;;;;;10.37;5.43;;;;;;;;;;5099858;28;20207;-63
2021/09/02 10:33:01;;;;;;;6.70;5.47;;;;;;;;;;5109099;28;20207;-63
2021/09/02 10:35:37;;;;;;;6.60;4.33;;;;;;;;;;5105035;28;20238;-64
2021/09/02 10:38:06;;;;;;;7.03;4.40;;;;;;;;;;5108901;28;20205;-63
2021/09/02 10:40:44;;;;;;;8.90;5.50;;;;;;;;;;5108059;28;20212;-63
2021/09/02 10:43:12;;;;;;;10.40;5.63;;;;;;;;;;5104902;28;20201;-65
2021/09/02 10:45:42;;;;;;;7.60;5.37;;;;;;;;;;5102977;28;20233;-63
2021/09/02 10:48:16;;;;;;;7.93;5.67;;;;;;;;;;5110887;28;20221;-62
2021/09/02 10:50:46;;;;;;;6.63;4.47;;;;;;;;;;5102736;28;20293;-62
2021/09/02 10:53:15;;;;;;;6.00;4.83;;;;;;;;;;5105765;28;20207;-61
2021/09/02 10:55:50;;;;;;;9.03;6.87;;;;;;;;;;5093440;28;20225;-61
2021/09/02 10:58:32;;;;;;;8.27;5.37;;;;;;;;;;5105809;28;20280;-60
2021/09/02 11:01:22;;;;;;;11.30;5.97;;;;;;;;;;5095996;28;20200;-63
2021/09/02 11:03:51;;;;;;;7.93;5.13;;;;;;;;;;5105137;28;20218;-63
2021/09/02 11:06:19;;;;;;;7.83;5.33;;;;;;;;;;5104032;28;20209;-64
2021/09/02 11:08:47;;;;;;;8.10;5.83;;;;;;;;;;5104130;28;20281;-65
2021/09/02 11:11:16;;;;;;;7.77;4.70;;;;;;;;;;5105945;28;20200;-65
2021/09/02 11:13:44;;;;;;;7.50;4.93;;;;;;;;;;5111728;28;20230;-65
2021/09/02 11:16:14;;;;;;;11.20;5.20;;;;;;;;;;5117571;28;20238;-65
2021/09/02 11:18:43;;;;;;;7.00;5.13;;;;;;;;;;5102399;28;20786;-64
2021/09/02 11:21:12;;;;;;;9.13;5.63;;;;;;;;;;5107900;28;20284;-64
2021/09/02 11:23:41;;;;;;;9.37;5.43;;;;;;;;;;5107565;28;20202;-65
2021/09/02 11:26:09;;;;;;;8.73;5.00;;;;;;;;;;5099286;28;20221;-64
2021/09/02 11:28:47;;;;;;;7.90;5.07;;;;;;;;;;5101759;28;20225;-63
2021/09/02 11:31:16;;;;;;;9.17;5.03;;;;;;;;;;5100892;28;20288;-64
2021/09/02 11:33:45;;;;;;;11.50;5.47;;;;;;;;;;5101026;28;20867;-63
2021/09/02 11:36:13;;;;;;;5.87;4.93;;;;;;;;;;5100332;28;20292;-64
2021/09/02 11:38:42;;;;;;;6.93;5.53;;;;;;;;;;5117331;28;20207;-66
2021/09/02 11:41:18;;;;;;;6.97;4.87;;;;;;;;;;5117450;28;20208;-66
2021/09/02 11:43:46;;;;;;;6.30;5.23;;;;;;;;;;5110408;28;20223;-67
2021/09/02 11:46:14;;;;;;;9.77;5.30;;;;;;;;;;5121319;28;20200;-65
2021/09/02 11:48:47;;;;;;;8.40;6.00;;;;;;;;;;5117210;28;20714;-66
2021/09/02 11:51:19;;;;;;;7.57;4.73;;;;;;;;;;5113119;28;20221;-66
2021/09/02 11:53:48;;;;;;;7.40;4.67;;;;;;;;;;5105068;28;20221;-66
2021/09/02 11:56:19;;;;;;;7.30;6.60;;;;;;;;;;5108460;28;20293;-67
2021/09/02 11:58:47;;;;;;;6.00;5.27;;;;;;;;;;5114483;28;20268;-69
2021/09/02 12:01:15;;;;;;;6.20;4.83;;;;;;;;;;5112497;28;20241;-68
2021/09/02 12:03:51;;;;;;;6.50;4.73;;;;;;;;;;5109807;28;20315;-70
2021/09/02 12:06:22;;;;;;;8.87;4.80;;;;;;;;;;5100311;28;20209;-70
2021/09/02 12:08:50;;;;;;;9.90;4.70;;;;;;;;;;5098345;28;20675;-68
2021/09/02 12:11:19;;;;;;;6.00;4.70;;;;;;;;;;5099952;28;20216;-69
2021/09/02 12:13:47;;;;;;;6.77;4.50;;;;;;;;;;5104120;28;20222;-68
2021/09/02 12:16:17;;;;;;;6.57;4.80;;;;;;;;;;5120762;28;20206;-67
2021/09/02 12:18:46;;;;;;;5.60;5.00;;;;;;;;;;5119314;28;20550;-68
2021/09/02 12:21:17;;;;;;;6.07;5.07;;;;;;;;;;5103940;28;20204;-66
2021/09/02 12:23:49;;;;;;;7.57;6.13;;;;;;;;;;5111124;28;20218;-68
2021/09/02 12:26:19;;;;;;;8.00;4.77;;;;;;;;;;5107289;28;20604;-69
2021/09/02 12:28:48;;;;;;;5.97;4.37;;;;;;;;;;5107951;28;20563;-69
2021/09/02 12:31:17;;;;;;;8.63;4.53;;;;;;;;;;5101673;28;20210;-71
2021/09/02 12:33:56;;;;;;;6.70;4.60;;;;;;;;;;5098891;28;20239;-70
2021/09/02 12:36:25;;;;;;;5.20;4.33;;;;;;;;;;5100120;28;20219;-70
2021/09/02 12:38:53;;;;;;;7.20;4.67;;;;;;;;;;5104612;28;20207;-70
2021/09/02 12:41:23;;;;;;;5.40;4.90;;;;;;;;;;5115321;28;20203;-67
2021/09/02 12:44:00;;;;;;;5.90;4.53;;;;;;;;;;5107366;28;20227;-67
2021/09/02 12:46:28;;;;;;;5.57;4.90;;;;;;;;;;5106021;28;20262;-67
2021/09/02 12:49:06;;;;;;;5.57;4.53;;;;;;;;;;5099487;28;20219;-69
2021/09/02 12:51:35;;;;;;;5.93;4.33;;;;;;;;;;5105273;28;20238;-69
2021/09/02 12:54:03;;;;;;;5.67;5.10;;;;;;;;;;5100082;28;20230;-69
2021/09/02 12:56:35;;;;;;;6.90;4.40;;;;;;;;;;5101219;28;20301;-69
2021/09/02 12:59:03;;;;;;;6.90;4.97;;;;;;;;;;5107552;28;20656;-70
2021/09/02 13:01:31;;;;;;;5.73;4.40;;;;;;;;;;5101222;28;20201;-70
2021/09/02 13:04:01;;;;;;;4.93;3.93;;;;;;;;;;5099514;28;20227;-70
2021/09/02 13:06:30;;;;;;;4.50;4.10;;;;;;;;;;5104316;28;20222;-70
2021/09/02 13:09:00;;;;;;;7.53;4.07;;;;;;;;;;5108314;28;20223;-70
2021/09/02 13:11:28;;;;;;;4.00;3.60;;;;;;;;;;5107504;28;20241;-71
2021/09/02 13:13:56;;;;;;;5.87;3.93;;;;;;;;;;5101658;28;20311;-71
2021/09/02 13:16:24;;;;;;;7.13;3.37;;;;;;;;;;5106647;28;21858;-70
2021/09/02 13:18:53;;;;;;;6.03;4.77;;;;;;;;;;5102970;28;20198;-70
2021/09/02 13:21:21;;;;;;;7.03;4.10;;;;;;;;;;5107951;28;20783;-70
2021/09/02 13:23:49;;;;;;;4.17;3.77;;;;;;;;;;5104118;28;20243;-71
2021/09/02 13:26:18;;;;;;;4.53;3.30;;;;;;;;;;5099195;28;20563;-71
2021/09/02 13:28:46;;;;;;;5.00;3.50;;;;;;;;;;5098043;28;20230;-70
2021/09/02 13:31:14;;;;;;;8.87;3.63;;;;;;;;;;5098765;28;20210;-70
2021/09/02 13:33:42;;;;;;;3.70;3.10;;;;;;;;;;5098675;28;20200;-71
2021/09/02 13:36:10;;;;;;;4.83;3.50;;;;;;;;;;5099004;28;20293;-69
2021/09/02 13:38:38;;;;;;;6.27;3.07;;;;;;;;;;5098503;28;20257;-68
2021/09/02 13:41:06;;;;;;;6.30;4.47;;;;;;;;;;5098489;28;20201;-67
2021/09/02 13:43:36;;;;;;;5.67;3.43;;;;;;;;;;5102389;28;20205;-66
2021/09/02 13:46:05;;;;;;;6.47;3.87;;;;;;;;;;5103664;28;20203;-67
2021/09/02 13:48:33;;;;;;;6.03;3.40;;;;;;;;;;5107642;28;20274;-67
2021/09/02 13:51:01;;;;;;;3.67;2.93;;;;;;;;;;5098040;28;20714;-67
2021/09/02 13:53:29;;;;;;;11.73;5.23;;;;;;;;;;5099976;28;20574;-67
2021/09/02 13:55:57;;;;;;;9.07;4.57;;;;;;;;;;5098295;27;20358;-67
2021/09/02 13:58:25;;;;;;;8.93;4.40;;;;;;;;;;5096985;28;20207;-67
2021/09/02 14:01:00;;;;;;;6.13;3.77;;;;;;;;;;5096649;28;20571;-67
2021/09/02 14:03:29;;;;;;;7.77;3.63;;;;;;;;;;5098383;28;20296;-67
2021/09/02 14:05:57;;;;;;;6.10;3.60;;;;;;;;;;5098324;28;20575;-67
2021/09/02 14:08:26;;;;;;;8.93;5.83;;;;;;;;;;5097355;28;20231;-67
2021/09/02 14:10:54;;;;;;;8.70;3.67;;;;;;;;;;5097831;28;20268;-67
2021/09/02 14:13:21;;;;;;;7.67;3.63;;;;;;;;;;5115022;28;20219;-67
2021/09/02 14:15:50;;;;;;;8.73;3.93;;;;;;;;;;5119437;27;20205;-67
2021/09/02 14:18:19;;;;;;;8.00;4.50;;;;;;;;;;5100922;28;20201;-67
2021/09/02 14:20:47;;;;;;;5.33;3.33;;;;;;;;;;5104092;28;20287;-67
2021/09/02 14:23:15;;;;;;;5.80;3.10;;;;;;;;;;5098290;28;20205;-67
2021/09/02 14:25:43;;;;;;;7.10;3.50;;;;;;;;;;5111108;28;20584;-67
2021/09/02 14:28:11;;;;;;;4.00;3.17;;;;;;;;;;5098417;28;20201;-67
2021/09/02 14:30:39;;;;;;;4.17;2.87;;;;;;;;;;5098045;28;20209;-67
2021/09/02 14:33:07;;;;;;;3.40;3.10;;;;;;;;;;5098598;28;20201;-67
2021/09/02 14:35:38;;;;;;;18.30;5.30;;;;;;;;;;5099866;28;20222;-67
2021/09/02 14:38:06;;;;;;;5.37;3.60;;;;;;;;;;5100012;28;20294;-67
2021/09/02 14:40:34;;;;;;;6.27;3.30;;;;;;;;;;5117456;28;20291;-67
2021/09/02 14:43:02;;;;;;;3.97;3.30;;;;;;;;;;5104988;28;20202;-67
2021/09/02 14:45:30;;;;;;;14.43;5.50;;;;;;;;;;5097482;28;20226;-67
2021/09/02 14:47:58;;;;;;;35.17;10.50;;;;;;;;;;5097620;28;20704;-67
2021/09/02 14:50:27;;;;;;;7.37;4.13;;;;;;;;;;5101016;28;20579;-65